createdAt,value
2019-03-08T00:00:22.859Z,85.80
2019-03-08T00:01:22.781Z,85.42
2019-03-08T00:02:22.692Z,86.09
2019-03-08T00:03:22.605Z,85.90
2019-03-08T00:04:22.531Z,85.99
2019-03-08T00:05:22.444Z,85.42
2019-03-08T00:06:22.355Z,85.24
2019-03-08T00:07:22.269Z,85.99
2019-03-08T00:08:22.195Z,85.90
2019-03-08T00:09:22.108Z,85.61
2019-03-08T00:10:22.022Z,85.99
2019-03-08T00:11:21.945Z,85.99
2019-03-08T00:12:21.856Z,85.99
2019-03-08T00:13:21.774Z,85.99
2019-03-08T00:14:21.683Z,85.90
2019-03-08T00:15:21.607Z,85.99
2019-03-08T00:16:21.523Z,86.18
2019-03-08T00:17:21.437Z,85.99
2019-03-08T00:18:21.358Z,85.61
2019-03-08T00:19:21.276Z,85.71
2019-03-08T00:20:21.183Z,85.33
2019-03-08T00:21:21.096Z,85.33
2019-03-08T00:22:21.020Z,85.80
2019-03-08T00:23:20.934Z,85.99
2019-03-08T00:24:20.852Z,86.28
2019-03-08T00:25:20.771Z,85.90
2019-03-08T00:26:20.683Z,86.57
2019-03-08T00:27:20.596Z,86.18
2019-03-08T00:28:20.509Z,85.90
2019-03-08T00:29:20.433Z,85.80
2019-03-08T00:30:20.346Z,85.33
2019-03-08T00:31:20.272Z,85.14
2019-03-08T00:32:20.183Z,85.04
2019-03-08T00:33:20.097Z,85.71
2019-03-08T00:34:20.010Z,85.90
2019-03-08T00:35:19.922Z,86.09
2019-03-08T00:36:19.849Z,85.90
2019-03-08T00:37:19.759Z,85.61
2019-03-08T00:38:19.672Z,85.52
2019-03-08T00:39:19.585Z,86.38
2019-03-08T00:40:19.510Z,86.18
2019-03-08T00:41:19.423Z,86.09
2019-03-08T00:42:19.334Z,86.85
2019-03-08T00:43:19.263Z,86.85
2019-03-08T00:44:19.173Z,85.80
2019-03-08T00:45:19.085Z,86.28
2019-03-08T00:46:18.999Z,85.90
2019-03-08T00:47:18.927Z,86.76
2019-03-08T00:48:19.085Z,86.57
2019-03-08T00:49:18.769Z,87.04
2019-03-08T00:50:18.664Z,86.76
2019-03-08T00:51:18.585Z,87.61
2019-03-08T00:52:18.500Z,87.52
2019-03-08T00:53:18.412Z,87.23
2019-03-08T00:54:18.336Z,87.32
2019-03-08T00:55:18.251Z,87.23
2019-03-08T00:56:18.161Z,87.23
2019-03-08T00:57:18.075Z,87.61
2019-03-08T00:58:17.999Z,88.09
2019-03-08T00:59:17.912Z,88.46
2019-03-08T01:00:17.826Z,88.42
2019-03-08T01:01:17.749Z,88.71
2019-03-08T01:02:17.661Z,88.75
2019-03-08T01:03:17.579Z,88.71
2019-03-08T01:04:17.487Z,88.56
2019-03-08T01:05:17.413Z,88.37
2019-03-08T01:06:17.327Z,88.37
2019-03-08T01:07:17.237Z,88.46
2019-03-08T01:08:17.151Z,88.85
2019-03-08T01:09:17.077Z,88.94
2019-03-08T01:10:17.001Z,89.00
2019-03-08T01:11:16.901Z,88.80
2019-03-08T01:12:16.814Z,88.90
2019-03-08T01:13:16.738Z,89.75
2019-03-08T01:14:16.651Z,89.04
2019-03-08T01:15:16.586Z,89.04
2019-03-08T01:16:16.488Z,89.04
2019-03-08T01:17:16.403Z,89.14
2019-03-08T01:18:16.313Z,89.00
2019-03-08T01:19:16.231Z,89.51
2019-03-08T01:20:16.155Z,89.28
2019-03-08T01:21:16.064Z,89.75
2019-03-08T01:22:15.977Z,89.94
2019-03-08T01:23:16.153Z,89.94
2019-03-08T01:24:15.814Z,90.14
2019-03-08T01:25:15.731Z,89.85
2019-03-08T01:26:15.640Z,89.75
2019-03-08T01:27:15.565Z,89.94
2019-03-08T01:28:15.478Z,89.94
2019-03-08T01:29:15.402Z,89.94
2019-03-08T01:30:15.303Z,89.85
2019-03-08T01:31:15.236Z,89.94
2019-03-08T01:32:15.140Z,89.85
2019-03-08T01:33:15.054Z,89.85
2019-03-08T01:34:14.965Z,89.89
2019-03-08T01:35:14.903Z,89.85
2019-03-08T01:36:14.804Z,89.47
2019-03-08T01:37:14.715Z,89.94
2019-03-08T01:38:14.879Z,89.75
2019-03-08T01:39:14.554Z,89.85
2019-03-08T01:40:14.466Z,90.33
2019-03-08T01:41:14.379Z,90.42
2019-03-08T01:42:14.304Z,90.14
2019-03-08T01:43:14.216Z,90.52
2019-03-08T01:44:14.135Z,90.23
2019-03-08T01:45:14.041Z,90.33
2019-03-08T01:46:13.967Z,90.52
2019-03-08T01:47:13.880Z,90.04
2019-03-08T01:48:14.092Z,90.14
2019-03-08T01:49:13.709Z,90.42
2019-03-08T01:50:13.630Z,90.52
2019-03-08T01:51:13.545Z,90.04
2019-03-08T01:52:13.455Z,89.94
2019-03-08T01:53:13.367Z,89.94
2019-03-08T01:54:13.293Z,90.04
2019-03-08T01:55:13.205Z,89.66
2019-03-08T01:56:13.118Z,90.04
2019-03-08T01:57:13.031Z,89.66
2019-03-08T01:58:12.957Z,90.42
2019-03-08T01:59:12.867Z,90.04
2019-03-08T02:00:12.794Z,89.66
2019-03-08T02:01:12.716Z,89.75
2019-03-08T02:02:12.618Z,89.37
2019-03-08T02:03:12.532Z,89.61
2019-03-08T02:04:12.443Z,89.56
2019-03-08T02:05:12.357Z,89.75
2019-03-08T02:06:12.282Z,89.23
2019-03-08T02:07:12.194Z,89.61
2019-03-08T02:08:12.109Z,88.85
2019-03-08T02:09:12.020Z,88.56
2019-03-08T02:10:11.944Z,88.66
2019-03-08T02:11:11.858Z,89.04
2019-03-08T02:12:11.769Z,89.42
2019-03-08T02:13:11.694Z,89.14
2019-03-08T02:14:11.610Z,89.66
2019-03-08T02:15:11.521Z,89.66
2019-03-08T02:16:11.436Z,89.37
2019-03-08T02:17:11.359Z,89.14
2019-03-08T02:18:11.273Z,89.47
2019-03-08T02:19:11.183Z,88.56
2019-03-08T02:20:11.095Z,88.75
2019-03-08T02:21:11.022Z,88.46
2019-03-08T02:22:10.933Z,88.85
2019-03-08T02:23:10.845Z,88.94
2019-03-08T02:24:10.759Z,88.85
2019-03-08T02:25:10.684Z,88.46
2019-03-08T02:26:10.596Z,88.66
2019-03-08T02:27:10.510Z,88.37
2019-03-08T02:28:10.422Z,88.28
2019-03-08T02:29:10.348Z,88.09
2019-03-08T02:30:10.260Z,88.56
2019-03-08T02:31:10.173Z,88.56
2019-03-08T02:32:10.096Z,88.37
2019-03-08T02:33:10.011Z,88.09
2019-03-08T02:34:09.921Z,88.46
2019-03-08T02:35:09.836Z,87.80
2019-03-08T02:36:09.761Z,88.09
2019-03-08T02:37:09.671Z,87.99
2019-03-08T02:38:09.587Z,87.99
2019-03-08T02:39:09.511Z,87.42
2019-03-08T02:40:09.422Z,87.61
2019-03-08T02:41:09.335Z,87.61
2019-03-08T02:42:09.247Z,87.61
2019-03-08T02:43:09.172Z,88.09
2019-03-08T02:44:09.086Z,88.28
2019-03-08T02:45:09.010Z,88.56
2019-03-08T02:46:08.911Z,87.99
2019-03-08T02:47:08.824Z,87.42
2019-03-08T02:48:09.048Z,87.42
2019-03-08T02:49:08.661Z,87.61
2019-03-08T02:50:08.573Z,87.80
2019-03-08T02:51:08.498Z,87.90
2019-03-08T02:52:08.412Z,87.52
2019-03-08T02:53:08.323Z,86.76
2019-03-08T02:54:08.237Z,86.85
2019-03-08T02:55:08.162Z,87.32
2019-03-08T02:56:08.074Z,87.80
2019-03-08T02:57:07.990Z,87.52
2019-03-08T02:58:07.902Z,87.71
2019-03-08T02:59:07.823Z,87.32
2019-03-08T03:00:07.737Z,86.76
2019-03-08T03:01:07.663Z,86.76
2019-03-08T03:02:07.564Z,86.76
2019-03-08T03:03:07.489Z,86.38
2019-03-08T03:04:07.399Z,87.04
2019-03-08T03:05:07.314Z,87.04
2019-03-08T03:06:07.227Z,86.57
2019-03-08T03:07:07.151Z,86.76
2019-03-08T03:08:07.065Z,86.66
2019-03-08T03:09:06.975Z,86.85
2019-03-08T03:10:06.900Z,86.85
2019-03-08T03:11:06.813Z,86.57
2019-03-08T03:12:06.725Z,86.47
2019-03-08T03:13:06.939Z,86.57
2019-03-08T03:14:06.564Z,86.38
2019-03-08T03:15:06.493Z,87.04
2019-03-08T03:16:06.390Z,85.99
2019-03-08T03:17:06.304Z,86.09
2019-03-08T03:18:06.230Z,86.09
2019-03-08T03:19:06.139Z,85.90
2019-03-08T03:20:06.052Z,86.66
2019-03-08T03:21:05.976Z,86.57
2019-03-08T03:22:05.891Z,85.80
2019-03-08T03:23:05.802Z,85.99
2019-03-08T03:24:05.715Z,85.99
2019-03-08T03:25:05.641Z,85.90
2019-03-08T03:26:05.552Z,85.24
2019-03-08T03:27:05.466Z,86.09
2019-03-08T03:28:05.389Z,85.61
2019-03-08T03:29:05.315Z,85.90
2019-03-08T03:30:05.217Z,85.42
2019-03-08T03:31:05.193Z,85.24
2019-03-08T03:32:05.056Z,85.42
2019-03-08T03:33:04.967Z,85.04
2019-03-08T03:34:04.877Z,85.24
2019-03-08T03:35:04.791Z,85.04
2019-03-08T03:36:04.716Z,84.95
2019-03-08T03:37:04.641Z,85.04
2019-03-08T03:38:04.792Z,85.52
2019-03-08T03:39:04.472Z,85.71
2019-03-08T03:40:04.379Z,85.71
2019-03-08T03:41:04.295Z,86.18
2019-03-08T03:42:04.214Z,85.80
2019-03-08T03:43:04.142Z,85.61
2019-03-08T03:44:04.042Z,85.42
2019-03-08T03:45:03.954Z,85.24
2019-03-08T03:46:03.879Z,84.95
2019-03-08T03:47:03.796Z,85.04
2019-03-08T03:48:03.705Z,85.14
2019-03-08T03:49:03.618Z,85.04
2019-03-08T03:50:03.544Z,85.04
2019-03-08T03:51:03.454Z,84.19
2019-03-08T03:52:03.372Z,84.38
2019-03-08T03:53:03.283Z,83.71
2019-03-08T03:54:03.205Z,84.19
2019-03-08T03:55:03.119Z,84.09
2019-03-08T03:56:03.030Z,84.47
2019-03-08T03:57:02.967Z,83.90
2019-03-08T03:58:03.117Z,83.90
2019-03-08T03:59:02.794Z,83.71
2019-03-08T04:00:02.694Z,84.00
2019-03-08T04:01:02.619Z,83.81
2019-03-08T04:02:02.531Z,83.81
2019-03-08T04:03:02.448Z,84.00
2019-03-08T04:04:02.370Z,83.62
2019-03-08T04:05:02.289Z,84.00
2019-03-08T04:06:02.195Z,83.33
2019-03-08T04:07:02.119Z,83.23
2019-03-08T04:08:02.332Z,83.33
2019-03-08T04:09:01.945Z,83.42
2019-03-08T04:10:01.858Z,83.14
2019-03-08T04:11:01.781Z,82.57
2019-03-08T04:12:01.695Z,82.57
2019-03-08T04:13:01.621Z,82.19
2019-03-08T04:14:01.521Z,82.57
2019-03-08T04:15:01.448Z,82.00
2019-03-08T04:16:01.358Z,82.00
2019-03-08T04:17:01.272Z,82.19
2019-03-08T04:18:01.195Z,82.09
2019-03-08T04:19:01.108Z,81.81
2019-03-08T04:20:01.021Z,81.28
2019-03-08T04:21:00.934Z,81.43
2019-03-08T04:22:00.859Z,81.71
2019-03-08T04:23:00.773Z,81.52
2019-03-08T04:24:00.684Z,81.66
2019-03-08T04:25:00.608Z,81.66
2019-03-08T04:26:00.524Z,81.62
2019-03-08T04:27:00.452Z,81.56
2019-03-08T04:28:00.347Z,81.85
2019-03-08T04:29:00.271Z,81.52
2019-03-08T04:30:00.312Z,81.62
2019-03-08T04:31:00.109Z,81.56
2019-03-08T04:32:00.023Z,81.85
2019-03-08T04:32:59.946Z,81.47
2019-03-08T04:33:59.847Z,81.18
2019-03-08T04:34:59.760Z,81.47
2019-03-08T04:35:59.684Z,81.56
2019-03-08T04:36:59.597Z,80.99
2019-03-08T04:37:59.509Z,80.61
2019-03-08T04:38:59.447Z,80.42
2019-03-08T04:39:59.349Z,80.61
2019-03-08T04:40:59.260Z,80.13
2019-03-08T04:41:59.173Z,79.85
2019-03-08T04:42:59.100Z,80.61
2019-03-08T04:43:59.010Z,80.33
2019-03-08T04:44:58.924Z,80.52
2019-03-08T04:45:58.854Z,80.33
2019-03-08T04:46:58.760Z,80.71
2019-03-08T04:47:58.924Z,80.61
2019-03-08T04:48:58.599Z,80.42
2019-03-08T04:49:58.511Z,80.13
2019-03-08T04:50:58.429Z,80.42
2019-03-08T04:51:58.350Z,80.42
2019-03-08T04:52:58.264Z,79.94
2019-03-08T04:53:58.174Z,80.13
2019-03-08T04:54:58.087Z,80.04
2019-03-08T04:55:58.014Z,80.80
2019-03-08T04:56:57.925Z,79.94
2019-03-08T04:57:57.837Z,80.42
2019-03-08T04:58:57.753Z,80.23
2019-03-08T04:59:57.675Z,80.42
2019-03-08T05:00:57.595Z,80.61
2019-03-08T05:01:57.500Z,80.23
2019-03-08T05:02:57.426Z,80.61
2019-03-08T05:03:57.337Z,80.52
2019-03-08T05:04:57.251Z,80.71
2019-03-08T05:05:57.165Z,80.23
2019-03-08T05:06:57.088Z,80.61
2019-03-08T05:07:57.002Z,80.61
2019-03-08T05:08:56.926Z,80.42
2019-03-08T05:09:56.839Z,80.61
2019-03-08T05:10:56.753Z,80.61
2019-03-08T05:11:56.665Z,79.85
2019-03-08T05:12:56.589Z,79.94
2019-03-08T05:13:56.507Z,79.94
2019-03-08T05:14:56.415Z,80.04
2019-03-08T05:15:56.327Z,79.66
2019-03-08T05:16:56.252Z,80.52
2019-03-08T05:17:56.177Z,80.33
2019-03-08T05:18:56.078Z,79.66
2019-03-08T05:19:56.009Z,79.94
2019-03-08T05:20:55.915Z,79.75
2019-03-08T05:21:55.828Z,80.23
2019-03-08T05:22:55.753Z,80.04
2019-03-08T05:23:55.678Z,79.85
2019-03-08T05:24:55.578Z,79.75
2019-03-08T05:25:55.493Z,79.75
2019-03-08T05:26:55.415Z,79.75
2019-03-08T05:27:55.330Z,79.85
2019-03-08T05:28:55.249Z,79.66
2019-03-08T05:29:55.178Z,79.57
2019-03-08T05:30:55.078Z,79.85
2019-03-08T05:31:54.990Z,80.04
2019-03-08T05:32:54.917Z,79.94
2019-03-08T05:33:54.831Z,79.85
2019-03-08T05:34:54.740Z,79.85
2019-03-08T05:35:54.666Z,80.23
2019-03-08T05:36:54.579Z,80.13
2019-03-08T05:37:54.741Z,80.13
2019-03-08T05:38:54.404Z,80.23
2019-03-08T05:39:54.330Z,79.94
2019-03-08T05:40:54.244Z,79.57
2019-03-08T05:41:54.167Z,80.33
2019-03-08T05:42:54.120Z,79.85
2019-03-08T05:43:54.005Z,79.85
2019-03-08T05:44:53.905Z,80.13
2019-03-08T05:45:53.833Z,80.42
2019-03-08T05:46:53.744Z,80.04
2019-03-08T05:47:53.656Z,79.94
2019-03-08T05:48:53.568Z,79.57
2019-03-08T05:49:53.492Z,79.66
2019-03-08T05:50:53.415Z,80.33
2019-03-08T05:51:53.318Z,80.23
2019-03-08T05:52:53.258Z,80.23
2019-03-08T05:53:53.156Z,79.66
2019-03-08T05:54:53.068Z,80.04
2019-03-08T05:55:52.992Z,79.85
2019-03-08T05:56:52.907Z,79.85
2019-03-08T05:57:52.819Z,79.57
2019-03-08T05:58:52.757Z,80.23
2019-03-08T05:59:52.657Z,80.04
2019-03-08T06:00:52.573Z,80.23
2019-03-08T06:01:52.493Z,79.66
2019-03-08T06:02:52.407Z,79.66
2019-03-08T06:03:52.319Z,79.60
2019-03-08T06:04:52.232Z,79.47
2019-03-08T06:05:52.157Z,79.60
2019-03-08T06:06:52.072Z,79.47
2019-03-08T06:07:51.984Z,79.80
2019-03-08T06:08:51.907Z,79.28
2019-03-08T06:09:51.823Z,79.41
2019-03-08T06:10:51.745Z,79.80
2019-03-08T06:11:51.658Z,80.13
2019-03-08T06:12:51.820Z,79.57
2019-03-08T06:13:51.483Z,79.70
2019-03-08T06:14:51.408Z,79.60
2019-03-08T06:15:51.322Z,79.03
2019-03-08T06:16:51.245Z,78.94
2019-03-08T06:17:51.148Z,79.41
2019-03-08T06:18:51.071Z,79.66
2019-03-08T06:19:50.984Z,80.42
2019-03-08T06:20:50.905Z,79.51
2019-03-08T06:21:50.821Z,79.60
2019-03-08T06:22:50.734Z,79.51
2019-03-08T06:23:50.647Z,79.60
2019-03-08T06:24:50.573Z,79.60
2019-03-08T06:25:50.484Z,79.89
2019-03-08T06:26:50.397Z,79.41
2019-03-08T06:27:50.322Z,79.80
2019-03-08T06:28:50.235Z,79.51
2019-03-08T06:29:50.147Z,79.51
2019-03-08T06:30:50.074Z,79.89
2019-03-08T06:31:49.985Z,79.70
2019-03-08T06:32:49.946Z,79.60
2019-03-08T06:33:49.826Z,79.80
2019-03-08T06:34:49.736Z,79.51
2019-03-08T06:35:49.649Z,79.80
2019-03-08T06:36:49.573Z,79.32
2019-03-08T06:37:49.792Z,79.60
2019-03-08T06:38:49.398Z,79.70
2019-03-08T06:39:49.323Z,79.22
2019-03-08T06:40:49.236Z,79.41
2019-03-08T06:41:49.148Z,79.70
2019-03-08T06:42:49.073Z,79.13
2019-03-08T06:43:48.986Z,79.80
2019-03-08T06:44:48.899Z,79.70
2019-03-08T06:45:48.824Z,79.99
2019-03-08T06:46:48.739Z,80.36
2019-03-08T06:47:48.924Z,80.08
2019-03-08T06:48:48.573Z,79.70
2019-03-08T06:49:48.487Z,80.08
2019-03-08T06:50:48.400Z,80.65
2019-03-08T06:51:48.327Z,80.65
2019-03-08T06:52:48.237Z,80.27
2019-03-08T06:53:48.167Z,80.65
2019-03-08T06:54:48.076Z,80.46
2019-03-08T06:55:47.991Z,80.27
2019-03-08T06:56:47.900Z,80.65
2019-03-08T06:57:47.825Z,81.03
2019-03-08T06:58:47.737Z,80.46
2019-03-08T06:59:47.663Z,80.46
2019-03-08T07:00:47.563Z,80.84
2019-03-08T07:01:47.489Z,81.13
2019-03-08T07:02:47.400Z,80.55
2019-03-08T07:03:47.315Z,81.03
2019-03-08T07:04:47.238Z,81.13
2019-03-08T07:05:47.151Z,80.94
2019-03-08T07:06:47.066Z,81.13
2019-03-08T07:07:46.993Z,81.41
2019-03-08T07:08:46.915Z,81.60
2019-03-08T07:09:46.817Z,82.08
2019-03-08T07:10:46.747Z,81.60
2019-03-08T07:11:46.652Z,81.23
2019-03-08T07:12:46.816Z,81.70
2019-03-08T07:13:46.492Z,81.85
2019-03-08T07:14:46.414Z,81.85
2019-03-08T07:15:46.315Z,81.51
2019-03-08T07:16:46.243Z,81.23
2019-03-08T07:17:46.152Z,81.13
2019-03-08T07:18:46.066Z,81.41
2019-03-08T07:19:45.994Z,81.60
2019-03-08T07:20:45.916Z,81.51
2019-03-08T07:21:45.815Z,81.51
2019-03-08T07:22:45.744Z,81.79
2019-03-08T07:23:45.659Z,81.60
2019-03-08T07:24:45.566Z,81.32
2019-03-08T07:25:51.529Z,82.08
2019-03-08T07:26:45.417Z,81.60
2019-03-08T07:27:45.316Z,81.32
2019-03-08T07:28:45.247Z,81.79
2019-03-08T07:29:45.153Z,81.60
2019-03-08T07:30:45.079Z,81.70
2019-03-08T07:31:44.992Z,81.79
2019-03-08T07:32:44.905Z,81.89
2019-03-08T07:33:52.960Z,81.79
2019-03-08T07:34:44.743Z,81.98
2019-03-08T07:35:44.653Z,82.18
2019-03-08T07:36:44.579Z,82.18
2019-03-08T07:37:44.743Z,82.84
2019-03-08T07:38:44.406Z,82.08
2019-03-08T07:39:44.330Z,82.08
2019-03-08T07:40:44.243Z,81.79
2019-03-08T07:41:44.154Z,82.37
2019-03-08T07:42:45.097Z,81.98
2019-03-08T07:43:43.993Z,81.32
2019-03-08T07:44:43.908Z,81.79
2019-03-08T07:45:44.325Z,81.60
2019-03-08T07:46:43.743Z,81.60
2019-03-08T07:47:43.655Z,81.60
2019-03-08T07:48:43.580Z,81.89
2019-03-08T07:49:43.496Z,81.70
2019-03-08T07:50:43.412Z,81.70
2019-03-08T07:51:43.331Z,81.60
2019-03-08T07:52:43.247Z,81.51
2019-03-08T07:53:43.156Z,81.51
2019-03-08T07:54:43.082Z,81.70
2019-03-08T07:55:42.996Z,81.74
2019-03-08T07:56:42.907Z,81.89
2019-03-08T07:57:42.832Z,81.84
2019-03-08T07:58:42.745Z,81.93
2019-03-08T07:59:42.717Z,81.93
2019-03-08T08:00:42.593Z,81.51
2019-03-08T08:01:42.495Z,81.79
2019-03-08T08:02:42.408Z,81.60
2019-03-08T08:03:42.335Z,81.55
2019-03-08T08:04:42.246Z,81.70
2019-03-08T08:05:42.163Z,81.93
2019-03-08T08:06:42.083Z,81.70
2019-03-08T08:07:41.995Z,81.36
2019-03-08T08:08:51.086Z,81.74
2019-03-08T08:09:41.833Z,81.46
2019-03-08T08:10:41.746Z,81.36
2019-03-08T08:11:41.671Z,81.17
2019-03-08T08:12:41.833Z,81.55
2019-03-08T08:13:41.496Z,81.26
2019-03-08T08:14:41.421Z,81.93
2019-03-08T08:15:41.333Z,81.60
2019-03-08T08:16:41.259Z,81.32
2019-03-08T08:17:41.171Z,82.37
2019-03-08T08:18:41.084Z,82.27
2019-03-08T08:19:41.022Z,82.08
2019-03-08T08:20:40.923Z,82.84
2019-03-08T08:21:40.834Z,82.84
2019-03-08T08:22:41.060Z,82.56
2019-03-08T08:23:40.672Z,82.75
2019-03-08T08:24:40.585Z,82.84
2019-03-08T08:25:40.522Z,82.84
2019-03-08T08:26:40.429Z,82.93
2019-03-08T08:27:40.349Z,83.13
2019-03-08T08:28:49.466Z,83.41
2019-03-08T08:29:40.203Z,82.93
2019-03-08T08:30:40.111Z,83.51
2019-03-08T08:31:40.023Z,82.84
2019-03-08T08:32:39.923Z,83.32
2019-03-08T08:33:39.849Z,83.32
2019-03-08T08:34:39.760Z,83.32
2019-03-08T08:35:39.674Z,83.89
2019-03-08T08:36:39.599Z,84.08
2019-03-08T08:37:39.514Z,83.89
2019-03-08T08:38:39.424Z,84.08
2019-03-08T08:39:40.960Z,83.89
2019-03-08T08:40:39.262Z,83.80
2019-03-08T08:41:39.178Z,83.98
2019-03-08T08:42:39.099Z,84.65
2019-03-08T08:43:39.012Z,84.65
2019-03-08T08:44:38.926Z,84.27
2019-03-08T08:45:38.850Z,84.17
2019-03-08T08:46:38.775Z,84.36
2019-03-08T08:47:38.686Z,84.56
2019-03-08T08:48:38.604Z,84.36
2019-03-08T08:49:38.512Z,84.56
2019-03-08T08:50:38.437Z,84.27
2019-03-08T08:51:38.352Z,84.46
2019-03-08T08:52:38.263Z,84.36
2019-03-08T08:53:38.188Z,84.84
2019-03-08T08:54:38.103Z,84.46
2019-03-08T08:55:38.012Z,84.56
2019-03-08T08:56:37.939Z,84.27
2019-03-08T08:57:37.851Z,84.17
2019-03-08T08:58:37.764Z,84.17
2019-03-08T08:59:37.689Z,84.27
2019-03-08T09:00:37.602Z,84.27
2019-03-08T09:01:37.514Z,84.36
2019-03-08T09:02:37.438Z,84.65
2019-03-08T09:03:37.352Z,84.36
2019-03-08T09:04:37.264Z,84.17
2019-03-08T09:05:37.201Z,84.46
2019-03-08T09:06:37.101Z,83.98
2019-03-08T09:07:37.016Z,83.98
2019-03-08T09:08:36.939Z,83.98
2019-03-08T09:09:36.853Z,84.17
2019-03-08T09:10:36.767Z,84.36
2019-03-08T09:11:44.071Z,85.03
2019-03-08T09:12:36.856Z,85.13
2019-03-08T09:13:36.530Z,85.32
2019-03-08T09:14:36.440Z,85.32
2019-03-08T09:15:36.355Z,85.80
2019-03-08T09:16:36.279Z,85.41
2019-03-08T09:17:36.193Z,85.41
2019-03-08T09:18:36.108Z,85.32
2019-03-08T09:19:36.031Z,85.80
2019-03-08T09:20:35.941Z,85.51
2019-03-08T09:21:35.853Z,85.80
2019-03-08T09:22:35.784Z,85.99
2019-03-08T09:23:35.692Z,86.75
2019-03-08T09:24:35.607Z,87.89
2019-03-08T09:25:35.529Z,89.13
2019-03-08T09:26:35.454Z,89.41
2019-03-08T09:27:35.356Z,89.98
2019-03-08T09:28:35.283Z,90.46
2019-03-08T09:29:41.339Z,90.75
2019-03-08T09:30:35.118Z,90.08
2019-03-08T09:31:35.031Z,90.46
2019-03-08T09:32:34.943Z,90.17
2019-03-08T09:33:34.867Z,90.27
2019-03-08T09:34:34.781Z,90.84
2019-03-08T09:35:34.692Z,90.17
2019-03-08T09:36:34.617Z,90.65
2019-03-08T09:37:34.782Z,90.46
2019-03-08T09:38:34.442Z,90.08
2019-03-08T09:39:34.368Z,89.79
2019-03-08T09:40:34.280Z,89.70
2019-03-08T09:41:34.193Z,89.79
2019-03-08T09:42:34.131Z,89.79
2019-03-08T09:43:34.031Z,89.98
2019-03-08T09:44:33.943Z,88.84
2019-03-08T09:45:33.882Z,89.22
2019-03-08T09:46:33.782Z,89.03
2019-03-08T09:47:33.695Z,89.22
2019-03-08T09:48:33.620Z,89.41
2019-03-08T09:49:33.532Z,89.41
2019-03-08T09:50:33.457Z,88.93
2019-03-08T09:51:33.370Z,89.51
2019-03-08T09:52:33.282Z,90.08
2019-03-08T09:53:33.208Z,89.98
2019-03-08T09:54:33.120Z,90.08
2019-03-08T09:55:33.033Z,90.36
2019-03-08T09:56:32.963Z,91.31
2019-03-08T09:57:33.219Z,91.94
2019-03-08T09:58:32.795Z,92.36
2019-03-08T09:59:32.707Z,92.32
2019-03-08T10:00:32.621Z,91.94
2019-03-08T10:01:32.550Z,92.79
2019-03-08T10:02:32.459Z,93.55
2019-03-08T10:03:32.370Z,94.22
2019-03-08T10:04:32.296Z,93.94
2019-03-08T10:05:32.213Z,93.27
2019-03-08T10:06:32.124Z,93.18
2019-03-08T10:07:32.046Z,92.46
2019-03-08T10:08:31.959Z,92.08
2019-03-08T10:09:31.872Z,92.36
2019-03-08T10:10:31.796Z,91.89
2019-03-08T10:11:31.709Z,91.22
2019-03-08T10:12:31.624Z,91.41
2019-03-08T10:13:31.546Z,91.60
2019-03-08T10:14:31.460Z,90.65
2019-03-08T10:15:31.386Z,90.84
2019-03-08T10:16:31.300Z,90.41
2019-03-08T10:17:31.221Z,90.70
2019-03-08T10:18:31.135Z,90.65
2019-03-08T10:19:31.059Z,90.60
2019-03-08T10:20:30.960Z,90.70
2019-03-08T10:21:30.885Z,90.50
2019-03-08T10:22:30.797Z,90.94
2019-03-08T10:23:30.722Z,90.65
2019-03-08T10:24:30.635Z,91.31
2019-03-08T10:25:30.563Z,91.89
2019-03-08T10:26:30.472Z,92.27
2019-03-08T10:27:37.911Z,92.46
2019-03-08T10:28:30.305Z,92.22
2019-03-08T10:29:30.235Z,92.55
2019-03-08T10:30:31.859Z,92.60
2019-03-08T10:31:30.068Z,93.13
2019-03-08T10:32:37.121Z,92.69
2019-03-08T10:33:29.888Z,92.60
2019-03-08T10:34:29.829Z,91.94
2019-03-08T10:35:29.727Z,91.65
2019-03-08T10:36:29.675Z,91.55
2019-03-08T10:37:29.813Z,90.89
2019-03-08T10:38:29.475Z,90.98
2019-03-08T10:39:29.399Z,90.50
2019-03-08T10:40:29.312Z,90.74
2019-03-08T10:41:29.240Z,89.60
2019-03-08T10:42:29.149Z,89.50
2019-03-08T10:43:29.074Z,88.64
2019-03-08T10:44:28.988Z,87.74
2019-03-08T10:45:28.913Z,87.83
2019-03-08T10:46:28.825Z,86.88
2019-03-08T10:47:28.742Z,86.88
2019-03-08T10:48:28.663Z,86.78
2019-03-08T10:49:28.575Z,86.40
2019-03-08T10:50:28.501Z,86.07
2019-03-08T10:51:28.417Z,86.59
2019-03-08T10:52:28.340Z,87.07
2019-03-08T10:53:28.251Z,86.59
2019-03-08T10:54:28.175Z,86.36
2019-03-08T10:55:28.089Z,86.69
2019-03-08T10:56:28.018Z,86.83
2019-03-08T10:57:28.226Z,87.40
2019-03-08T10:58:27.851Z,88.07
2019-03-08T10:59:27.765Z,88.36
2019-03-08T11:00:27.689Z,88.64
2019-03-08T11:01:27.602Z,89.69
2019-03-08T11:02:27.540Z,89.17
2019-03-08T11:03:27.440Z,89.55
2019-03-08T11:04:27.354Z,90.03
2019-03-08T11:05:27.276Z,90.60
2019-03-08T11:06:27.203Z,91.08
2019-03-08T11:07:27.115Z,90.45
2019-03-08T11:08:29.754Z,90.03
2019-03-08T11:09:26.952Z,88.88
2019-03-08T11:10:26.868Z,89.12
2019-03-08T11:11:26.791Z,90.36
2019-03-08T11:12:26.703Z,91.60
2019-03-08T11:13:26.628Z,92.98
2019-03-08T11:14:26.541Z,94.56
2019-03-08T11:15:26.466Z,96.75
2019-03-08T11:16:26.382Z,98.46
2019-03-08T11:17:26.303Z,98.94
2019-03-08T11:18:26.216Z,99.99
2019-03-08T11:19:27.606Z,99.99
2019-03-08T11:20:26.053Z,99.99
2019-03-08T11:21:25.966Z,99.99
2019-03-08T11:22:25.893Z,99.99
2019-03-08T11:23:25.805Z,99.99
2019-03-08T11:24:25.728Z,99.99
2019-03-08T11:25:34.555Z,99.99
2019-03-08T11:26:25.556Z,99.99
2019-03-08T11:27:25.479Z,99.99
2019-03-08T11:28:25.392Z,99.99
2019-03-08T11:29:25.318Z,99.99
2019-03-08T11:30:25.231Z,99.99
2019-03-08T11:31:25.143Z,99.99
2019-03-08T11:32:25.069Z,99.99
2019-03-08T11:33:24.982Z,99.99
2019-03-08T11:34:25.470Z,99.99
2019-03-08T11:35:24.818Z,99.99
2019-03-08T11:36:24.731Z,99.99
2019-03-08T11:37:24.661Z,99.99
2019-03-08T11:38:24.569Z,99.99
2019-03-08T11:39:24.480Z,99.99
2019-03-08T11:40:24.393Z,99.99
2019-03-08T11:41:24.319Z,99.99
2019-03-08T11:42:24.231Z,99.99
2019-03-08T11:43:24.145Z,99.99
2019-03-08T11:44:24.069Z,99.99
2019-03-08T11:45:23.985Z,99.99
2019-03-08T11:46:23.896Z,99.99
2019-03-08T11:47:23.807Z,99.99
2019-03-08T11:48:23.731Z,99.99
2019-03-08T11:49:23.647Z,99.99
2019-03-08T11:50:23.557Z,99.99
2019-03-08T11:51:23.470Z,99.99
2019-03-08T11:52:23.396Z,99.99
2019-03-08T11:53:23.308Z,99.99
2019-03-08T11:54:23.225Z,99.99
2019-03-08T11:55:23.134Z,99.99
2019-03-08T11:56:23.057Z,99.99
2019-03-08T11:57:22.971Z,99.99
2019-03-08T11:58:22.885Z,99.99
2019-03-08T11:59:22.808Z,99.99
2019-03-08T12:00:22.723Z,99.99
2019-03-08T12:01:22.633Z,99.99
2019-03-08T12:02:22.546Z,99.99
2019-03-08T12:03:22.473Z,99.99
2019-03-08T12:04:22.383Z,99.99
2019-03-08T12:05:22.296Z,99.99
2019-03-08T12:06:22.222Z,99.99
2019-03-08T12:07:22.138Z,99.99
2019-03-08T12:08:22.048Z,99.99
2019-03-08T12:09:21.972Z,99.99
2019-03-08T12:10:21.890Z,99.99
2019-03-08T12:11:21.799Z,99.99
2019-03-08T12:12:21.725Z,99.99
2019-03-08T12:13:21.634Z,99.99
2019-03-08T12:14:21.561Z,99.99
2019-03-08T12:15:21.473Z,99.99
2019-03-08T12:16:21.385Z,99.99
2019-03-08T12:17:21.311Z,99.99
2019-03-08T12:18:21.224Z,99.99
2019-03-08T12:19:21.149Z,99.99
2019-03-08T12:20:21.060Z,99.99
2019-03-08T12:21:20.985Z,99.99
2019-03-08T12:22:20.899Z,99.99
2019-03-08T12:23:20.827Z,98.51
2019-03-08T12:24:20.736Z,99.95
2019-03-08T12:25:20.675Z,99.99
2019-03-08T12:26:20.574Z,99.99
2019-03-08T12:27:20.502Z,97.56
2019-03-08T12:28:20.414Z,93.46
2019-03-08T12:29:20.342Z,93.12
2019-03-08T12:30:20.250Z,93.46
2019-03-08T12:31:20.174Z,92.60
2019-03-08T12:32:20.087Z,91.21
2019-03-08T12:33:20.049Z,89.78
2019-03-08T12:34:19.924Z,87.49
2019-03-08T12:35:19.855Z,89.06
2019-03-08T12:36:19.762Z,89.06
2019-03-08T12:37:19.989Z,88.06
2019-03-08T12:38:19.612Z,87.72
2019-03-08T12:39:19.525Z,85.62
2019-03-08T12:40:19.450Z,84.09
2019-03-08T12:41:19.363Z,84.19
2019-03-08T12:42:19.301Z,85.10
2019-03-08T12:43:19.200Z,85.19
2019-03-08T12:44:19.128Z,83.72
2019-03-08T12:45:19.039Z,84.91
2019-03-08T12:46:18.964Z,84.05
2019-03-08T12:47:18.888Z,83.48
2019-03-08T12:48:23.815Z,85.15
2019-03-08T12:49:18.732Z,85.21
2019-03-08T12:50:18.652Z,85.34
2019-03-08T12:51:18.563Z,85.49